• Join FlightAware (Why Join?)
  • Login
  • US Flag 
Gobble Gobble! 
08:22AM EST


 

Airport Tracker/Info


-or-


 

Live Flight TrackerFlight Track Log ✈ N662US ✈ 22-Jul-2013 ✈ KATL - RJAA / NRT

Flight Track Log - Related Links

Times and Time Zones

All times are in EDT time to prevent confusion due to time zone crossing. See the N662US flight status page for this flight to view local times or setup timezone preferences in your user account.

Time Position Orientation Groundspeed Altitude Reporting Facility
EDT Latitude Longitude Course Direction KTS MPH feet Rate Location/Type
01:53PM 33.6400 -84.4210 180° South  Level FlightAware
02:01PM 33.6380 -84.4210 180° South 18 21 60 Level FlightAware
02:02PM 33.6370 -84.4210 180° South 16 18 60 Level FlightAware
02:03PM 33.6370 -84.4200 90° East 25 29 60 Level FlightAware
02:04PM 33.6370 -84.4170 90° East 30 35 60 Level FlightAware
02:04PM 33.6370 -84.4150 90° East 26 30 120 Level FlightAware
02:05PM 33.6370 -84.4140 90° East 23 26 120 Level FlightAware
02:05PM 33.6370 -84.4130 90° East 20 23 120 Level FlightAware
02:06PM 33.6370 -84.4120 90° East 16 18 120 Level FlightAware
02:06PM 33.6370 -84.4110 90° East 15 17 120 Level FlightAware
02:07PM 33.6370 -84.4100 90° East 15 17 120 Level FlightAware
02:07PM 33.6370 -84.4090 90° East 14 16 120 Level FlightAware
02:08PM 33.6370 -84.4080 90° East 120 Level FlightAware
02:11PM 33.7803 -84.1667 North  Level FlightAware Approximate
02:12PM 33.8917 -84.2250 320° Northwest  Level FlightAware Approximate
02:13PM 33.9910 -84.3242 320° Northwest  Level FlightAware Approximate
02:14PM 34.0923 -84.4167 North  Level FlightAware Approximate
02:15PM 34.1969 -84.5047 323° Northwest  Level FlightAware Approximate
02:16PM 33.6350 -84.4290 270° West 150 173  Level FlightAware
02:16PM 33.6350 -84.4590 270° West 185 213 1,500 2,280 Climbing FlightAware
02:17PM 33.6350 -84.4870 270° West 196 226 2,200 1,200 Climbing FlightAware
02:17PM 33.6360 -84.5140 273° West 224 258 2,500 1,020 Climbing FlightAware
02:17PM 33.6390 -84.5290 284° West 233 268 2,800 1,500 Climbing FlightAware
02:17PM 33.6500 -84.5450 310° West 243 280 3,200 960 Climbing FlightAware
02:18PM 33.6770 -84.5670 326° Northwest 274 315 3,500 1,500 Climbing FlightAware
02:18PM 33.7060 -84.5860 331° Northwest 278 320 4,500 2,280 Climbing FlightAware
02:19PM 33.7240 -84.5980 331° Northwest 280 322 5,100 1,860 Climbing FlightAware
02:19PM 33.7560 -84.6230 327° Northwest 293 337 5,900 1,320 Climbing FlightAware
02:19PM 33.7770 -84.6340 336° Northwest 315 362 6,100 1,680 Climbing FlightAware
02:20PM 33.7950 -84.6370 352° North 322 371 6,700 3,300 Climbing FlightAware
02:20PM 33.8340 -84.6340 North 305 351 8,300 2,520 Climbing FlightAware
02:20PM 33.8740 -84.6200 16° North 320 368 9,100 2,160 Climbing FlightAware
02:21PM 33.8950 -84.6090 23° Northeast 313 360 9,900 1,680 Climbing FlightAware
02:21PM 33.9460 -84.5890 18° North 334 384 10,600 1,440 Climbing FlightAware
02:22PM 33.9880 -84.5740 16° North 337 388 11,500 960 Climbing FlightAware
02:23PM 34.0600 -84.5410 21° North 383 441 11,800 660 Climbing FlightAware
02:23PM 34.1300 -84.5120 19° North 412 474 12,500 1,560 Climbing FlightAware
02:24PM 34.1990 -84.4800 21° North 417 480 13,900 1,680 Climbing FlightAware
02:24PM 34.2649 -84.4536 18° North 431 496 14,600 1,260 Climbing FlightAware ADS-B
02:25PM 34.2891 -84.4497 North 432 497 14,900 1,560 Climbing FlightAware ADS-B
02:25PM 34.3112 -84.4492 North 432 497 15,200 1,500 Climbing FlightAware ADS-B
02:25PM 34.3363 -84.4530 353° North 432 497 15,500 1,620 Climbing FlightAware ADS-B
02:26PM 34.3971 -84.4697 347° North 437 503 16,400 1,620 Climbing FlightAware ADS-B
02:26PM 34.4585 -84.4877 346° North 443 510 17,200 1,620 Climbing FlightAware ADS-B
02:27PM 34.5213 -84.5060 346° North 448 516 18,100 1,560 Climbing FlightAware ADS-B
02:27PM 34.5824 -84.5237 347° North 453 521 18,800 1,500 Climbing FlightAware ADS-B
02:28PM 34.6444 -84.5415 347° North 459 528 19,600 1,440 Climbing FlightAware ADS-B
02:28PM 34.7114 -84.5605 347° North 463 533 20,300 1,320 Climbing FlightAware ADS-B
02:29PM 34.7758 -84.5792 347° North 468 539 21,000 1,320 Climbing FlightAware ADS-B
02:29PM 34.8423 -84.5980 347° North 473 544 21,700 1,200 Climbing FlightAware ADS-B
02:30PM 34.9077 -84.6170 347° North 477 549 22,300 1,140 Climbing FlightAware ADS-B
02:30PM 34.9739 -84.6356 347° North 481 554 22,900 1,080 Climbing FlightAware ADS-B
02:31PM 35.0397 -84.6546 347° North 486 559 23,400 960 Climbing FlightAware ADS-B
02:31PM 35.1104 -84.6752 347° North 494 568 23,900 900 Climbing FlightAware ADS-B
02:32PM 35.1882 -84.6979 347° North 496 571 24,400 840 Climbing FlightAware ADS-B
02:33PM 35.2989 -84.7297 347° North 508 585 25,100 780 Climbing FlightAware ADS-B
02:33PM 35.3687 -84.7505 346° North 514 592 25,500 840 Climbing FlightAware ADS-B
02:34PM 35.4402 -84.7709 347° North 518 596 26,000 960 Climbing FlightAware ADS-B
02:34PM 35.5115 -84.7921 346° North 521 600 26,500 900 Climbing FlightAware ADS-B
02:35PM 35.5908 -84.8149 347° North 525 604 27,000 840 Climbing FlightAware ADS-B
02:35PM 35.6622 -84.8364 346° North 527 606 27,400 900 Climbing FlightAware ADS-B
02:36PM 35.7510 -84.8620 347° North 526 605 28,100 1,140 Climbing FlightAware
02:36PM 35.7862 -84.8728 346° North 525 604 28,400 1,200 Climbing FlightAware ADS-B
02:37PM 35.8569 -84.8938 346° North 522 601 29,000 1,200 Climbing FlightAware ADS-B
02:37PM 35.9281 -84.9145 347° North 521 600 29,600 840 Climbing FlightAware ADS-B
02:38PM 36.0165 -84.9410 346° North 521 600 30,000 300 Climbing FlightAware ADS-B
02:38PM 36.0892 -84.9625 347° North 521 600 30,000  Level FlightAware ADS-B
02:39PM 36.1596 -84.9835 346° North 521 600 30,000  Level FlightAware ADS-B
02:39PM 36.2315 -85.0045 347° North 520 598 30,000  Level FlightAware ADS-B
02:40PM 36.3263 -85.0331 346° North 518 596 30,000  Level FlightAware ADS-B
02:40PM 36.3968 -85.0538 347° North 515 593 30,000  Level FlightAware ADS-B
02:41PM 36.5167 -85.0900 346° North 515 593 30,000  Level FlightAware ADS-B
02:42PM 36.5893 -85.1116 347° North 518 596 30,000  Level FlightAware ADS-B
02:42PM 36.6622 -85.1340 346° North 517 595 30,000  Level FlightAware ADS-B
02:43PM 36.7492 -85.1601 346° North 516 594 30,000  Level FlightAware ADS-B
02:43PM 36.8242 -85.1826 346° North 517 595 30,000  Level FlightAware ADS-B
02:44PM 36.8996 -85.2059 346° North 517 595 30,000  Level FlightAware ADS-B
02:45PM 36.9703 -85.2271 347° North 519 597 30,000  Level FlightAware ADS-B
02:45PM 37.0404 -85.2485 346° North 520 598 30,000  Level FlightAware ADS-B
02:45PM 37.0814 -85.2607 347° North 520 598 30,000  Level FlightAware ADS-B
02:46PM 37.2080 -85.3290 337° Northwest 512 589 30,000  Level FlightAware
02:47PM 37.2910 -85.4040 324° Northwest 508 585 30,000  Level FlightAware
02:48PM 37.3430 -85.4500 325° Northwest 506 582 30,000  Level FlightAware
02:48PM 37.4330 -85.5310 324° Northwest 505 581 30,000  Level FlightAware
02:49PM 37.5120 -85.6030 324° Northwest 501 577 30,000  Level FlightAware
02:50PM 37.5990 -85.6810 325° Northwest 495 570 30,000  Level FlightAware
02:50PM 37.6480 -85.7270 323° Northwest 493 567 30,000  Level FlightAware
02:51PM 37.7190 -85.7930 324° Northwest 491 565 30,000  Level FlightAware
02:51PM 37.7780 -85.8450 325° Northwest 489 563 30,000  Level FlightAware
02:52PM 37.8350 -85.8990 323° Northwest 489 563 30,000  Level FlightAware
02:53PM 37.9060 -85.9620 325° Northwest 487 560 30,000  Level FlightAware
02:53PM 37.9800 -86.0280 325° Northwest 487 560 30,000  Level FlightAware
02:54PM 38.0530 -86.0930 325° Northwest 483 556 30,000  Level FlightAware
02:55PM 38.1270 -86.1600 325° Northwest 480 552 30,000  Level FlightAware
02:55PM 38.2030 -86.2270 325° Northwest 479 551 30,000  Level FlightAware
02:56PM 38.2680 -86.2860 325° Northwest 479 551 30,000  Level FlightAware
02:56PM 38.3360 -86.3480 324° Northwest 480 552 30,000  Level FlightAware
02:57PM 38.4080 -86.4140 324° Northwest 483 556 30,000  Level FlightAware
02:58PM 38.4900 -86.4880 325° Northwest 485 558 30,000  Level FlightAware
02:59PM 38.5610 -86.5510 325° Northwest 487 560 30,000  Level FlightAware
02:59PM 38.6330 -86.6170 324° Northwest 486 559 30,000  Level FlightAware
03:02PM 38.8770 -86.8440 324° Northwest 486 559 30,000  Level FlightAware
03:02PM 38.9950 -86.9500 325° Northwest 477 549 30,000  Level FlightAware
03:03PM 39.0620 -87.0110 325° Northwest 477 549 30,000  Level FlightAware
03:04PM 39.1230 -87.0680 324° Northwest 478 550 30,000  Level FlightAware
03:04PM 39.1960 -87.1340 325° Northwest 477 549 30,000  Level FlightAware
03:05PM 39.2700 -87.2040 324° Northwest 477 549 30,000  Level FlightAware
03:06PM 39.3440 -87.2730 324° Northwest 477 549 30,000  Level FlightAware
03:06PM 39.4270 -87.3500 324° Northwest 478 550 30,000  Level FlightAware
03:07PM 39.4840 -87.4060 323° Northwest 477 549 30,000  Level FlightAware
03:08PM 39.5520 -87.4680 325° Northwest 477 549 30,000  Level FlightAware
03:08PM 39.6340 -87.5450 324° Northwest 476 548 30,000  Level FlightAware
03:09PM 39.7040 -87.6130 323° Northwest 475 547 30,000  Level FlightAware
03:10PM 39.7750 -87.6780 325° Northwest 475 547 30,000  Level FlightAware
03:10PM 39.8500 -87.7490 324° Northwest 476 548 30,000  Level FlightAware
03:11PM 39.9330 -87.8290 324° Northwest 476 548 30,000  Level FlightAware
03:12PM 40.0160 -87.9090 324° Northwest 475 547 30,000  Level FlightAware
03:13PM 40.0810 -87.9720 323° Northwest 475 547 30,000  Level FlightAware
03:13PM 40.1650 -88.0520 324° Northwest 477 549 30,000  Level FlightAware
03:14PM 40.2380 -88.1220 324° Northwest 476 548 30,000  Level FlightAware
03:15PM 40.3130 -88.1940 324° Northwest 477 549 30,000  Level FlightAware
03:16PM 40.3910 -88.2720 323° Northwest 479 551 30,000  Level FlightAware
03:16PM 40.4570 -88.3360 324° Northwest 479 551 30,000  Level FlightAware
03:17PM 40.5410 -88.4180 323° Northwest 479 551 30,000  Level FlightAware
03:18PM 40.6130 -88.4880 324° Northwest 479 551 30,000  Level FlightAware
03:18PM 40.6890 -88.5630 323° Northwest 480 552 30,000  Level FlightAware
03:19PM 40.7650 -88.6380 323° Northwest 480 552 30,000  Level FlightAware
03:20PM 40.8440 -88.7160 323° Northwest 480 552 30,000  Level FlightAware
03:20PM 40.9160 -88.7880 323° Northwest 479 551 30,000  Level FlightAware
03:21PM 40.9610 -88.8300 325° Northwest 478 550 30,000  Level FlightAware
03:22PM 41.0310 -88.9000 323° Northwest 477 549 30,000  Level FlightAware
03:22PM 41.0950 -88.9650 323° Northwest 477 549 30,000  Level FlightAware
03:23PM 41.1730 -89.0430 323° Northwest 477 549 30,000  Level FlightAware
03:24PM 41.2470 -89.1170 323° Northwest 478 550 30,000  Level FlightAware
03:24PM 41.3140 -89.1850 323° Northwest 478 550 30,000  Level FlightAware
03:25PM 41.3830 -89.2540 323° Northwest 479 551 30,000  Level FlightAware
03:26PM 41.4620 -89.3340 323° Northwest 478 550 30,000  Level FlightAware
03:26PM 41.5120 -89.3840 323° Northwest 480 552 30,000  Level FlightAware
03:27PM 41.5780 -89.4510 323° Northwest 480 552 30,000  Level FlightAware
03:27PM 41.6500 -89.5250 322° Northwest 480 552 30,000  Level FlightAware
03:28PM 41.7020 -89.5770 323° Northwest 480 552 30,000  Level FlightAware
03:29PM 41.7830 -89.6620 322° Northwest 480 552 30,000  Level FlightAware
03:29PM 41.8330 -89.7130 323° Northwest 479 551 30,000  Level FlightAware
03:30PM 41.8850 -89.7650 323° Northwest 479 551 30,000  Level FlightAware
03:30PM 41.9640 -89.8470 322° Northwest 479 551 30,000  Level FlightAware
03:31PM 42.0190 -89.9050 322° Northwest 478 550 30,000  Level FlightAware
03:31PM 42.0800 -89.9670 323° Northwest 479 551 30,000  Level FlightAware
03:32PM 42.1500 -90.0400 322° Northwest 478 550 30,000  Level FlightAware
03:33PM 42.2220 -90.1170 322° Northwest 480 552 30,000  Level FlightAware
03:33PM 42.2900 -90.1870 323° Northwest 481 554 30,000  Level FlightAware
03:34PM 42.3590 -90.2580 323° Northwest 481 554 30,000  Level FlightAware
03:35PM 42.4310 -90.3350 322° Northwest 482 555 30,000  Level FlightAware
03:35PM 42.5060 -90.4150 322° Northwest 483 556 30,000  Level FlightAware
03:36PM 42.5760 -90.4870 323° Northwest 485 558 30,000  Level FlightAware
03:37PM 42.6450 -90.5630 321° Northwest 484 557 30,000  Level FlightAware
03:37PM 42.7160 -90.6380 322° Northwest 484 557 30,000  Level FlightAware
03:38PM 42.7930 -90.7210 322° Northwest 484 557 30,000  Level FlightAware
03:39PM 42.8560 -90.7870 322° Northwest 483 556 30,000  Level FlightAware
03:39PM 42.9250 -90.8600 322° Northwest 482 555 30,000  Level FlightAware
03:40PM 43.0060 -90.9490 321° Northwest 481 554 30,000  Level FlightAware
03:41PM 43.0710 -91.0190 322° Northwest 480 552 30,000  Level FlightAware
03:42PM 43.1470 -91.1020 321° Northwest 480 552 30,000  Level FlightAware
03:42PM 43.2410 -91.2040 322° Northwest 481 554 30,000  Level FlightAware
03:43PM 43.3140 -91.2830 322° Northwest 483 556 30,000  Level FlightAware
03:44PM 43.3850 -91.3610 321° Northwest 483 556 30,000  Level FlightAware
03:44PM 43.4550 -91.4380 321° Northwest 483 556 30,000  Level FlightAware
03:45PM 43.5240 -91.5150 321° Northwest 483 556 30,000  Level FlightAware
03:46PM 43.5940 -91.5920 321° Northwest 483 556 30,000  Level FlightAware
03:47PM 43.6700 -91.6750 322° Northwest 484 557 30,000  Level FlightAware
03:47PM 43.7480 -91.7630 321° Northwest 486 559 30,000  Level FlightAware
03:48PM 43.8180 -91.8410 321° Northwest 488 562 30,000  Level FlightAware
03:49PM 43.8950 -91.9260 322° Northwest 489 563 30,000  Level FlightAware
03:49PM 43.9520 -91.9910 321° Northwest 487 560 30,000  Level FlightAware
03:50PM 44.0290 -92.0780 321° Northwest 484 557 30,000  Level FlightAware
03:51PM 44.0980 -92.1560 321° Northwest 480 552 30,000  Level FlightAware
03:51PM 44.1760 -92.2440 321° Northwest 476 548 30,000  Level FlightAware
03:52PM 44.2440 -92.3230 320° Northwest 474 545 30,000  Level FlightAware
03:53PM 44.3160 -92.4040 321° Northwest 472 543 30,000  Level FlightAware
03:53PM 44.3660 -92.4630 320° Northwest 473 544 30,000  Level FlightAware
03:54PM 44.4330 -92.5380 321° Northwest 474 545 30,000  Level FlightAware
03:55PM 44.5080 -92.6250 320° Northwest 474 545 30,000  Level FlightAware
03:55PM 44.5730 -92.7010 320° Northwest 473 544 30,000  Level FlightAware
03:56PM 44.6370 -92.7750 321° Northwest 472 543 30,000  Level FlightAware
03:57PM 44.7070 -92.8550 321° Northwest 471 542 30,000  Level FlightAware
03:57PM 44.7760 -92.9360 320° Northwest 471 542 30,000  Level FlightAware
03:58PM 44.8450 -93.0160 321° Northwest 472 543 30,000  Level FlightAware
03:59PM 44.9200 -93.1050 320° Northwest 472 543 30,000  Level FlightAware
03:59PM 44.9880 -93.1860 320° Northwest 471 542 30,000  Level FlightAware
04:00PM 45.0600 -93.2710 320° Northwest 471 542 30,000  Level FlightAware
04:01PM 45.1160 -93.3370 320° Northwest 471 542 30,000  Level FlightAware
04:01PM 45.1790 -93.4450 310° West 468 539 30,000  Level FlightAware
04:02PM 45.2310 -93.5610 303° West 467 537 30,000  Level FlightAware
04:03PM 45.2780 -93.6670 302° West 466 536 30,000  Level FlightAware
04:04PM 45.3240 -93.7700 302° West 465 535 30,000  Level FlightAware
04:04PM 45.3760 -93.8860 303° West 464 534 30,000  Level FlightAware
04:05PM 45.4270 -94.0000 303° West 463 533 30,000  Level FlightAware
04:06PM 45.4730 -94.1060 302° West 462 532 30,000  Level FlightAware
04:06PM 45.5230 -94.2190 302° West 462 532 30,000  Level FlightAware
04:07PM 45.5670 -94.3200 302° West 461 531 30,000  Level FlightAware
04:08PM 45.6130 -94.4260 302° West 460 529 30,000  Level FlightAware
04:08PM 45.6590 -94.5340 301° West 460 529 30,000  Level FlightAware
04:09PM 45.7080 -94.6450 302° West 459 528 30,000  Level FlightAware
04:10PM 45.7490 -94.7410 301° West 458 527 30,000  Level FlightAware
04:10PM 45.7940 -94.8440 302° West 458 527 30,000  Level FlightAware
04:11PM 45.8410 -94.9550 301° West 457 526 30,000  Level FlightAware
04:12PM 45.8960 -95.0820 302° West 457 526 30,000  Level FlightAware
04:13PM 45.9270 -95.1570 301° West 457 526 30,000  Level FlightAware
04:14PM 46.0200 -95.3430 306° West 458 527 30,000  Level FlightAware
04:14PM 46.0630 -95.4370 303° West 458 527 30,000  Level FlightAware
04:15PM 46.1130 -95.5420 305° West 458 527 30,000  Level FlightAware
04:16PM 46.1800 -95.6790 305° West 457 526 30,000  Level FlightAware
04:17PM 46.2280 -95.7770 305° West 457 526 30,000  Level FlightAware
04:17PM 46.2870 -95.8900 307° West 458 527 30,000  Level FlightAware
04:18PM 46.3220 -95.9630 305° West 458 527 30,000  Level FlightAware
04:19PM 46.3720 -96.0650 305° West 458 527 30,000  Level FlightAware
04:20PM 46.4390 -96.2010 306° West 456 525 30,000  Level FlightAware
04:20PM 46.5010 -96.3260 306° West 458 527 30,000  Level FlightAware
04:21PM 46.5830 -96.4960 305° West 461 531 30,000  Level FlightAware
04:22PM 46.6110 -96.5540 305° West 461 531 30,000  Level FlightAware
04:23PM 46.6510 -96.6360 305° West 461 531 30,000  Level FlightAware
04:23PM 46.6880 -96.7140 305° West 461 531 30,000  Level FlightAware
04:24PM 46.7680 -96.8920 303° West 462 532 30,000  Level FlightAware
04:25PM 46.8250 -97.0350 300° West 463 533 30,000  Level FlightAware
04:26PM 46.8590 -97.1200 300° West 463 533 30,000  Level FlightAware
04:26PM 46.8920 -97.2050 300° West 463 533 30,000  Level FlightAware
04:27PM 46.9310 -97.3350 294° West 462 532 30,000  Level FlightAware
04:28PM 46.9810 -97.4740 298° West 463 533 30,000  Level FlightAware
04:28PM 47.0300 -97.6120 298° West 463 533 30,000  Level FlightAware
04:29PM 47.0700 -97.7240 298° West 464 534 30,000  Level FlightAware
04:30PM 47.1140 -97.8470 298° West 463 533 30,000  Level FlightAware
04:31PM 47.1610 -97.9810 297° West 463 533 30,000  Level FlightAware
04:31PM 47.2050 -98.1010 298° West 463 533 30,000  Level FlightAware
04:32PM 47.2580 -98.2520 297° West 463 533 30,000  Level FlightAware
04:33PM 47.2870 -98.3380 296° West 463 533 30,000  Level FlightAware
04:33PM 47.3320 -98.4650 298° West 465 535 30,000  Level FlightAware
04:34PM 47.3730 -98.5830 297° West 465 535 30,000  Level FlightAware
04:35PM 47.4030 -98.6720 297° West 465 535 30,000  Level FlightAware
04:36PM 47.4540 -98.8190 297° West 465 535 30,000  Level FlightAware
04:37PM 47.4940 -98.9350 297° West 465 535 30,000  Level FlightAware
04:37PM 47.5240 -99.0220 297° West 465 535 30,000  Level FlightAware
04:38PM 47.5540 -99.1090 297° West 465 535 30,000  Level FlightAware
04:39PM 47.5940 -99.2270 297° West 465 535 30,000  Level FlightAware
04:39PM 47.6260 -99.3190 297° West 465 535 30,000  Level FlightAware
04:40PM 47.6570 -99.4080 297° West 465 535 30,000  Level FlightAware
04:41PM 47.7580 -99.7200 296° West 468 539 30,000  Level FlightAware
04:41PM 47.7920 -99.8230 296° West 468 539 30,000  Level FlightAware
04:42PM 47.8410 -99.9740 296° West 469 540 30,000  Level FlightAware
04:43PM 47.8770 -100.0840 296° West 468 539 30,000  Level FlightAware
04:43PM 47.9150 -100.2000 296° West 466 536 30,000  Level FlightAware
04:44PM 47.9560 -100.3240 296° West 465 535 30,000  Level FlightAware
04:45PM 47.9860 -100.4190 295° West 464 534 30,000  Level FlightAware
04:45PM 48.0190 -100.5230 295° West 462 532 30,000  Level FlightAware
04:46PM 48.0580 -100.6460 295° West 462 532 30,000  Level FlightAware
04:47PM 48.0850 -100.7350 294° West 462 532 30,000  Level FlightAware
04:48PM 48.1240 -100.8580 295° West 462 532 30,000  Level FlightAware
04:48PM 48.1510 -100.9470 294° West 462 532 30,000  Level FlightAware
04:49PM 48.1880 -101.0660 295° West 462 532 30,000  Level FlightAware
04:50PM 48.2160 -101.1540 296° West 462 532 30,000  Level FlightAware
04:50PM 48.2430 -101.2430 295° West 462 532 30,000  Level FlightAware
04:51PM 48.2710 -101.3320 295° West 462 532 30,000  Level FlightAware
04:52PM 48.3080 -101.4510 295° West 462 532 30,000  Level FlightAware
04:52PM 48.3360 -101.5430 295° West 462 532 30,000  Level FlightAware
04:53PM 48.3730 -101.6620 295° West 462 532 30,000  Level FlightAware
04:54PM 48.4010 -101.7540 295° West 462 532 30,000  Level FlightAware
04:54PM 48.4390 -101.8750 295° West 462 532 30,000  Level FlightAware
04:55PM 48.4670 -101.9650 295° West 462 532 30,000  Level FlightAware
04:56PM 48.7997 -102.0531 295° West 466 536 30,000  Level Minneapolis Center
04:57PM 48.8667 -102.1833 308° West 470 541 30,000  Level Winnipeg Center
04:58PM 48.9667 -102.3500 312° West 470 541 30,000  Level Winnipeg Center
04:59PM 49.0667 -102.4500 327° Northwest 470 541 30,000  Level Winnipeg Center
05:00PM 49.1500 -102.6000 310° West 470 541 30,000  Level Winnipeg Center
05:01PM 49.2500 -102.7333 319° Northwest 470 541 30,000  Level Winnipeg Center
05:02PM 49.3333 -102.8667 314° West 470 541 30,000  Level Winnipeg Center
05:03PM 49.4333 -103.0167 316° Northwest 470 541 30,000  Level Winnipeg Center
05:08PM 49.9270 -103.7230 316° Northwest 470 541 30,000  Level FlightAware
05:09PM 49.9860 -103.8140 315° West 470 541 30,000  Level FlightAware
05:09PM 50.0400 -103.8970 315° West 470 541 30,000  Level FlightAware
05:10PM 50.1010 -103.9930 315° West 469 540 30,000  Level FlightAware
05:11PM 50.1560 -104.0780 315° West 469 540 30,000  Level FlightAware
05:11PM 50.2190 -104.1760 315° West 468 539 30,000  Level FlightAware
05:12PM 50.2950 -104.2980 314° West 465 535 30,000  Level FlightAware
05:13PM 50.3600 -104.3980 316° Northwest 463 533 30,000  Level FlightAware
05:13PM 50.4190 -104.4910 315° West 463 533 30,000  Level FlightAware
05:14PM 50.4880 -104.6010 315° West 465 535 30,000  Level FlightAware
05:15PM 50.5340 -104.6760 314° West 466 536 30,000  Level FlightAware
05:16PM 50.6190 -104.8120 315° West 468 539 30,000 480 Level FlightAware
05:16PM 50.6900 -104.9410 311° West 467 537 30,900 1,140 Climbing FlightAware
05:17PM 50.7400 -105.0560 305° West 467 537 31,700 780 Climbing FlightAware
05:18PM 50.7890 -105.1670 305° West 466 536 32,000 180 Climbing FlightAware
05:18PM 50.8420 -105.2880 305° West 463 533 32,000  Level FlightAware
05:19PM 50.8830 -105.3850 304° West 462 532 32,000  Level FlightAware
05:20PM 50.9350 -105.5060 304° West 462 532 32,000  Level FlightAware
05:21PM 51.0000 -105.6570 304° West 462 532 32,000  Level FlightAware
05:21PM 51.0520 -105.7810 304° West 462 532 32,000  Level FlightAware
05:22PM 51.0880 -105.8660 304° West 463 533 32,000  Level FlightAware
05:23PM 51.1450 -106.0020 304° West 464 534 32,000  Level FlightAware
05:23PM 51.1990 -106.1290 304° West 464 534 32,000  Level FlightAware
05:24PM 51.2340 -106.2120 304° West 463 533 32,000  Level FlightAware
05:25PM 51.2730 -106.3090 303° West 463 533 32,000  Level FlightAware
05:25PM 51.3210 -106.4260 303° West 463 533 32,000  Level FlightAware
05:26PM 51.3570 -106.5140 303° West 463 533 32,000  Level FlightAware
05:27PM 51.4200 -106.6650 304° West 461 531 32,000  Level FlightAware
05:27PM 51.4540 -106.7480 303° West 461 531 32,000  Level FlightAware
05:28PM 51.4910 -106.8410 303° West 461 531 32,000  Level FlightAware
05:29PM 51.5740 -107.0460 303° West 461 531 32,000  Level FlightAware
05:30PM 51.6100 -107.1340 303° West 461 531 32,000  Level FlightAware
05:31PM 51.6560 -107.2500 303° West 461 531 32,000  Level FlightAware
05:32PM 51.7030 -107.3670 303° West 461 531 32,000  Level FlightAware
05:32PM 51.7400 -107.4580 303° West 461 531 32,000  Level FlightAware
05:33PM 51.7770 -107.5490 303° West 461 531 32,000  Level FlightAware
05:34PM 51.8250 -107.6690 303° West 461 531 32,000  Level FlightAware
05:35PM 51.8820 -107.8120 303° West 461 531 32,000  Level FlightAware
05:35PM 51.9180 -107.9010 303° West 461 531 32,000  Level FlightAware
05:36PM 51.9650 -108.0190 303° West 461 531 32,000  Level FlightAware
05:37PM 52.1167 -108.5000 303° West 460 529 32,000  Level Winnipeg Center
05:38PM 52.1833 -108.6500 306° West 470 541 32,000  Level Winnipeg Center
05:39PM 52.2500 -108.8667 297° West 470 541 32,000  Level Winnipeg Center
05:40PM 52.3167 -109.0333 303° West 460 529 32,000  Level Winnipeg Center
05:41PM 52.4000 -109.2167 307° West 460 529 32,000  Level Winnipeg Center
05:42PM 52.4333 -109.4000 287° West 460 529 32,000  Level Winnipeg Center
05:47PM 52.7990 -110.3360 287° West 456 525 32,000  Level FlightAware
05:47PM 52.8310 -110.4470 296° West 456 525 32,000  Level FlightAware
05:48PM 52.8700 -110.5890 295° West 456 525 32,000  Level FlightAware
05:49PM 52.9020 -110.6990 296° West 456 525 32,000  Level FlightAware
05:49PM 52.9350 -110.8200 294° West 457 526 32,000  Level FlightAware
05:50PM 52.9760 -110.9660 295° West 452 520 32,000  Level FlightAware
05:51PM 53.0070 -111.0800 294° West 451 519 32,000  Level FlightAware
05:52PM 53.0460 -111.2230 294° West 451 519 32,000  Level FlightAware
05:52PM 53.0860 -111.3650 295° West 450 518 32,000  Level FlightAware
05:53PM 53.1200 -111.4920 294° West 450 518 32,000  Level FlightAware
05:54PM 53.1550 -111.6190 295° West 450 518 32,000  Level FlightAware
05:54PM 53.1930 -111.7630 294° West 450 518 32,000  Level FlightAware
05:55PM 53.2270 -111.8870 295° West 449 517 32,000  Level FlightAware
05:56PM 53.2610 -112.0180 293° West 450 518 32,000  Level FlightAware
05:56PM 53.2990 -112.1630 294° West 452 520 32,000  Level FlightAware
05:57PM 53.3330 -112.2910 294° West 452 520 32,000  Level FlightAware
05:58PM 53.3710 -112.4360 294° West 455 524 32,000  Level FlightAware
05:58PM 53.4010 -112.5490 294° West 454 522 32,000  Level FlightAware
05:59PM 53.4330 -112.6780 293° West 452 520 32,000  Level FlightAware
06:00PM 53.4700 -112.8230 293° West 453 521 32,000  Level FlightAware
06:01PM 53.5040 -112.9520 294° West 453 521 32,000  Level FlightAware
06:01PM 53.5400 -113.0940 293° West 453 521 32,000  Level FlightAware
06:02PM 53.5690 -113.2110 293° West 451 519 32,000  Level FlightAware
06:03PM 53.6050 -113.3560 293° West 451 519 32,000  Level FlightAware
06:03PM 53.6340 -113.4690 293° West 445 512 32,000  Level FlightAware
06:04PM 53.6900 -113.5790 311° West 461 531 32,000  Level FlightAware
06:05PM 53.7630 -113.6840 320° Northwest 461 531 32,000  Level FlightAware
06:05PM 53.8280 -113.7770 320° Northwest 461 531 32,000  Level FlightAware
06:06PM 53.9010 -113.8820 320° Northwest 455 524 32,000  Level FlightAware
06:07PM 53.9650 -113.9780 319° Northwest 453 521 32,000  Level FlightAware
06:07PM 54.0180 -114.0870 310° West 454 522 32,000  Level FlightAware
06:08PM 54.0800 -114.2140 310° West 447 514 32,000  Level FlightAware
06:09PM 54.1300 -114.3200 309° West 448 516 32,000  Level FlightAware
06:10PM 54.1880 -114.4450 308° West 448 516 32,000  Level FlightAware
06:10PM 54.2420 -114.5590 309° West 447 514 32,000  Level FlightAware
06:11PM 54.3000 -114.6850 308° West 446 513 32,000  Level FlightAware
06:12PM 54.3520 -114.7970 309° West 450 518 32,000  Level FlightAware
06:12PM 54.3970 -114.8950 308° West 448 516 32,000  Level FlightAware
06:13PM 54.4420 -114.9930 308° West 448 516 32,000  Level FlightAware
06:14PM 54.4980 -115.1200 307° West 448 516 32,000  Level FlightAware
06:14PM 54.5560 -115.2460 308° West 448 516 32,000  Level FlightAware
06:15PM 54.6070 -115.3620 307° West 449 517 32,000  Level FlightAware
06:16PM 54.6640 -115.4890 308° West 450 518 32,000  Level FlightAware
06:16PM 54.7150 -115.6030 308° West 450 518 32,000  Level FlightAware
06:17PM 54.7590 -115.7030 307° West 449 517 32,000  Level FlightAware
06:18PM 54.8100 -115.8180 308° West 448 516 32,000  Level FlightAware
06:18PM 54.8660 -115.9460 307° West 442 509 32,000  Level FlightAware
06:19PM 54.9110 -116.0490 307° West 440 506 32,000  Level FlightAware
06:19PM 54.9410 -116.1170 308° West 440 506 32,000  Level FlightAware
06:21PM 55.0260 -116.3140 307° West 438 504 32,000  Level FlightAware
06:21PM 55.0750 -116.4280 307° West 438 504 32,000  Level FlightAware
06:22PM 55.1160 -116.5250 306° West 438 504 32,000  Level FlightAware
06:23PM 55.1870 -116.7010 305° West 438 504 32,000  Level FlightAware
06:24PM 55.2350 -116.8200 305° West 438 504 32,000  Level FlightAware
06:24PM 55.2710 -116.9110 305° West 438 504 32,000  Level FlightAware
06:25PM 55.3190 -117.0300 305° West 438 504 32,000  Level FlightAware
06:26PM 55.3540 -117.1200 304° West 438 504 32,000  Level FlightAware
06:26PM 55.3900 -117.2090 305° West 438 504 32,000  Level FlightAware
06:27PM 55.4490 -117.3580 305° West 438 504 32,000  Level FlightAware
06:28PM 55.4840 -117.4480 304° West 438 504 32,000  Level FlightAware
06:29PM 55.5200 -117.5370 306° West 438 504 32,000  Level FlightAware
06:29PM 55.5670 -117.6570 305° West 438 504 32,000  Level FlightAware
06:30PM 55.6160 -117.7800 305° West 438 504 32,000  Level FlightAware
06:31PM 55.6510 -117.8700 305° West 438 504 32,000  Level FlightAware
06:32PM 55.6990 -117.9900 305° West 438 504 32,000  Level FlightAware
06:33PM 55.8833 -118.4833 305° West 430 495 32,000  Level Edmonton Center
06:34PM 55.9333 -118.6167 304° West 430 495 32,000  Level Edmonton Center
06:35PM 56.0167 -118.8333 305° West 430 495 32,000  Level Edmonton Center
06:36PM 56.0833 -118.9833 309° West 430 495 32,000  Level Edmonton Center
06:37PM 56.1500 -119.1667 303° West 430 495 32,000  Level Edmonton Center
06:38PM 56.2167 -119.3500 303° West 430 495 32,000  Level Edmonton Center
06:39PM 56.2833 -119.5333 303° West 430 495 32,000  Level Edmonton Center
06:40PM 56.3500 -119.7167 303° West 430 495 32,000  Level Edmonton Center
06:41PM 56.4167 -119.9000 303° West 430 495 32,000  Level Edmonton Center
06:42PM 56.4833 -120.0833 303° West 430 495 32,000  Level Edmonton Center
06:43PM 56.5667 -120.2667 310° West 430 495 32,000  Level Edmonton Center
06:44PM 56.6167 -120.4500 296° West 430 495 32,000  Level Edmonton Center
06:45PM 56.6833 -120.6333 304° West 440 506 32,000  Level Edmonton Center
06:46PM 56.7500 -120.8167 304° West 440 506 32,000  Level Edmonton Center
06:47PM 56.8333 -121.0167 307° West 450 518 32,000  Level Edmonton Center
06:48PM 56.8833 -121.2000 297° West 450 518 32,000  Level Edmonton Center
06:49PM 56.9667 -121.4000 307° West 460 529 32,000  Level Edmonton Center
06:50PM 57.0333 -121.6167 300° West 460 529 32,000  Level Edmonton Center
06:51PM 57.1000 -121.8167 302° West 470 541 32,000  Level Edmonton Center
06:52PM 57.1667 -122.0333 300° West 470 541 32,000  Level Edmonton Center
06:53PM 57.2333 -122.2333 302° West 470 541 32,000  Level Edmonton Center
06:54PM 57.3167 -122.4333 308° West 470 541 32,000  Level Edmonton Center
06:55PM 57.3833 -122.6167 304° West 470 541 32,000  Level Edmonton Center
06:56PM 57.4500 -122.8500 298° West 470 541 32,000  Level Edmonton Center
06:57PM 57.5333 -123.0500 308° West 480 552 32,000  Level Edmonton Center
06:58PM 57.6000 -123.2833 298° West 480 552 32,000  Level Edmonton Center
06:59PM 57.6500 -123.5167 292° West 480 552 32,000  Level Edmonton Center
07:00PM 57.7333 -123.7167 308° West 470 541 32,000  Level Edmonton Center
07:01PM 57.8000 -123.9500 298° West 480 552 32,000  Level Edmonton Center
07:03PM 57.9437 -124.3215 306° West  Level FlightAware Approximate
07:10PM 58.4922 -125.7949 306° West  Level FlightAware Approximate
07:11PM 58.5691 -126.0091 305° West  Level FlightAware Approximate
07:12PM 58.6457 -126.2242 304° West  Level FlightAware Approximate
07:13PM 58.7194 -126.4458 302° West  Level FlightAware Approximate
07:14PM 58.7910 -126.6682 302° West  Level FlightAware Approximate
07:15PM 58.8622 -126.8915 302° West  Level FlightAware Approximate
07:16PM 58.9330 -127.1157 302° West  Level FlightAware Approximate
07:17PM 59.0034 -127.3408 301° West  Level FlightAware Approximate
07:18PM 59.0734 -127.5669 301° West  Level FlightAware Approximate
07:19PM 59.1430 -127.7939 301° West  Level FlightAware Approximate
07:20PM 59.2122 -128.0217 301° West  Level FlightAware Approximate
07:21PM 59.2811 -128.2505 301° West  Level FlightAware Approximate
07:22PM 59.3495 -128.4803 300° West  Level FlightAware Approximate
07:23PM 59.4175 -128.7110 300° West  Level FlightAware Approximate
07:24PM 59.4851 -128.9425 300° West  Level FlightAware Approximate
07:25PM 59.5523 -129.1750 300° West  Level FlightAware Approximate
07:26PM 59.6191 -129.4085 300° West  Level FlightAware Approximate
07:27PM 59.6855 -129.6429 299° West  Level FlightAware Approximate
07:28PM 59.7514 -129.8782 299° West  Level FlightAware Approximate
07:29PM 59.8170 -130.1144 299° West  Level FlightAware Approximate
07:30PM 59.8820 -130.3515 299° West  Level FlightAware Approximate
07:31PM 59.9467 -130.5896 299° West  Level FlightAware Approximate
07:32PM 60.0110 -130.8286 298° West  Level FlightAware Approximate
07:33PM 60.0748 -131.0685 298° West  Level FlightAware Approximate
07:34PM 60.1381 -131.3094 298° West  Level FlightAware Approximate
07:35PM 60.2011 -131.5512 298° West  Level FlightAware Approximate
07:36PM 60.2636 -131.7939 298° West  Level FlightAware Approximate
07:37PM 60.3256 -132.0376 297° West  Level FlightAware Approximate
07:38PM 60.3872 -132.2821 297° West  Level FlightAware Approximate
07:39PM 60.4284 -132.5408 280° West  Level FlightAware Approximate
07:40PM 60.4506 -132.8123 280° West  Level FlightAware Approximate
07:41PM 60.4722 -133.0841 279° West  Level FlightAware Approximate
07:42PM 60.4933 -133.3563 279° West  Level FlightAware Approximate
07:43PM 60.5138 -133.6288 279° West  Level FlightAware Approximate
07:44PM 60.5338 -133.9017 279° West  Level FlightAware Approximate
07:45PM 60.5532 -134.1749 278° West  Level FlightAware Approximate
07:46PM 60.5720 -134.4484 278° West  Level FlightAware Approximate
07:47PM 60.5903 -134.7222 278° West  Level FlightAware Approximate
07:48PM 60.6080 -134.9964 278° West  Level FlightAware Approximate
07:49PM 60.6277 -135.2701 279° West  Level FlightAware Approximate
07:50PM 60.6494 -135.5434 279° West  Level FlightAware Approximate
07:51PM 60.6705 -135.8170 279° West  Level FlightAware Approximate
07:52PM 60.6911 -136.0910 279° West  Level FlightAware Approximate
07:53PM 60.7104 -136.3570 279° West  Level FlightAware Approximate
07:53PM 60.7167 -136.6000 277° West 470 541 34,000  Level Anchorage Center
07:54PM 60.7293 -136.6233 278° West  Level FlightAware Approximate
07:54PM 60.7333 -136.8833 277° West 510 587 34,000  Level Anchorage Center
07:55PM 60.7477 -136.8899 278° West  Level FlightAware Approximate
07:55PM 60.7667 -137.1667 284° West 500 575 34,000  Level Anchorage Center
07:56PM 60.7655 -137.1568 278° West  Level FlightAware Approximate
07:56PM 60.7833 -137.4500 277° West 490 564 34,000  Level Anchorage Center
07:57PM 60.7827 -137.4240 278° West  Level FlightAware Approximate
07:57PM 60.8000 -137.7167 277° West 500 575 34,000  Level Anchorage Center
07:58PM 60.7983 -137.6918 277° West  Level FlightAware Approximate
07:58PM 60.8167 -138.0000 277° West 490 564 34,000  Level Anchorage Center
07:59PM 60.8167 -138.2833 270° West 490 564 34,000  Level Anchorage Center
08:00PM 60.8333 -138.5500 277° West 490 564 34,000  Level Anchorage Center
08:01PM 60.8500 -138.8333 277° West 490 564 34,000  Level Anchorage Center
08:02PM 60.8667 -139.1000 277° West 490 564 34,000  Level Anchorage Center
08:03PM 60.8833 -139.3833 277° West 490 564 34,000  Level Anchorage Center
08:04PM 60.9000 -139.6667 277° West 490 564 34,000  Level Anchorage Center
08:05PM 60.9167 -139.9333 277° West 490 564 34,000  Level Anchorage Center
08:06PM 60.9167 -140.2167 270° West 490 564 34,000  Level Anchorage Center
08:07PM 60.9333 -140.5000 277° West 490 564 34,000  Level Anchorage Center
08:08PM 60.9500 -140.7833 277° West 490 564 34,000  Level Anchorage Center
08:09PM 60.9500 -141.0500 270° West 490 564 34,000  Level Anchorage Center
08:10PM 60.9667 -141.3333 277° West 490 564 34,000  Level Anchorage Center
08:11PM 60.9667 -141.6167 270° West 490 564 34,000  Level Anchorage Center
08:12PM 60.9833 -141.9500 276° West 490 564 34,000  Level Anchorage Center
08:13PM 60.9833 -142.2333 270° West 490 564 34,000  Level Anchorage Center
08:14PM 61.0000 -142.5167 277° West 480 552 34,000  Level Anchorage Center
08:15PM 61.0000 -142.8000 270° West 490 564 34,000  Level Anchorage Center
08:16PM 61.0167 -143.0833 277° West 490 564 34,000  Level Anchorage Center
08:17PM 61.0167 -143.3667 270° West 490 564 34,000  Level Anchorage Center
08:18PM 61.0167 -143.6500 270° West 500 575 34,000  Level Anchorage Center
08:19PM 61.0333 -143.9333 277° West 510 587 34,000  Level Anchorage Center
08:20PM 61.0333 -144.2333 270° West 510 587 34,000  Level Anchorage Center
08:21PM 61.0333 -144.5167 270° West 500 575 34,000  Level Anchorage Center
08:22PM 61.0333 -144.8167 270° West 510 587 34,000  Level Anchorage Center
08:23PM 61.0333 -145.1167 270° West 530 610 34,000  Level Anchorage Center
08:24PM 61.0333 -145.4167 270° West 530 610 34,000  Level Anchorage Center
08:29PM 61.0540 -147.1080 270° West 528 608 34,000  Level FlightAware
08:30PM 61.0540 -147.3040 270° West 528 608 34,000  Level FlightAware
08:31PM 61.0540 -147.5200 270° West 528 608 34,000  Level FlightAware
08:31PM 61.0530 -147.7060 269° West 528 608 34,000  Level FlightAware
08:32PM 61.0520 -147.9220 270° West 527 606 34,000  Level FlightAware
08:33PM 61.0510 -148.1020 269° West 525 604 34,000  Level FlightAware
08:34PM 61.0490 -148.3460 269° West 523 602 34,000  Level FlightAware
08:34PM 61.0470 -148.5400 269° West 521 600 34,000  Level FlightAware
08:35PM 61.0440 -148.7630 269° West 520 598 34,000  Level FlightAware
08:36PM 61.0420 -148.9600 269° West 518 596 34,000  Level FlightAware
08:36PM 61.0380 -149.1770 268° West 517 595 34,000  Level FlightAware
08:37PM 61.0350 -149.3780 268° West 517 595 34,000  Level FlightAware
08:38PM 61.0320 -149.5750 268° West 517 595 34,000  Level FlightAware
08:38PM 61.0280 -149.7920 268° West 516 594 34,000  Level FlightAware
08:39PM 61.0240 -149.9880 268° West 516 594 34,000  Level FlightAware
08:40PM 61.0180 -150.2430 267° West 516 594 34,000  Level FlightAware
08:41PM 61.0130 -150.4440 267° West 516 594 34,000  Level FlightAware
08:41PM 61.0080 -150.6400 267° West 516 594 34,000  Level FlightAware
08:42PM 61.0030 -150.8560 267° West 516 594 34,000  Level FlightAware
08:43PM 60.9970 -151.0570 267° West 516 594 34,000  Level FlightAware
08:44PM 60.9900 -151.2720 266° West 516 594 34,000  Level FlightAware
08:44PM 60.9840 -151.4690 266° West 517 595 34,000  Level FlightAware
08:45PM 60.9780 -151.6590 266° West 517 595 34,000  Level FlightAware
08:45PM 60.9720 -151.8400 266° West 516 594 34,000  Level FlightAware
08:46PM 60.9640 -152.0600 266° West 514 592 34,000  Level FlightAware
08:47PM 60.9570 -152.2400 265° West 512 589 34,000  Level FlightAware
08:47PM 60.9500 -152.4290 266° West 510 587 34,000  Level FlightAware
08:48PM 60.9420 -152.6270 265° West 509 586 34,000  Level FlightAware
08:49PM 60.9340 -152.8190 265° West 508 585 34,000  Level FlightAware
08:50PM 60.9250 -153.0210 265° West 509 586 34,000  Level FlightAware
08:50PM 60.9150 -153.2420 265° West 509 586 34,000  Level FlightAware
08:51PM 60.9060 -153.4340 265° West 509 586 34,000  Level FlightAware
08:52PM 60.8960 -153.6450 265° West 508 585 34,000  Level FlightAware
08:52PM 60.8870 -153.8360 265° West 507 583 34,000  Level FlightAware
08:53PM 60.8760 -154.0460 264° West 506 582 34,000  Level FlightAware
08:54PM 60.8660 -154.2370 264° West 506 582 34,000  Level FlightAware
08:54PM 60.8560 -154.4180 264° West 505 581 34,000  Level FlightAware
08:55PM 60.8460 -154.5840 263° West 505 581 34,000  Level FlightAware
08:56PM 60.8350 -154.7780 263° West 505 581 34,000  Level FlightAware
08:56PM 60.8260 -154.9240 263° West 505 581 34,000  Level FlightAware
08:57PM 60.8170 -155.0690 263° West 505 581 34,000  Level FlightAware
08:58PM 60.8060 -155.2630 263° West 505 581 34,000  Level FlightAware
08:58PM 60.7970 -155.4090 263° West 505 581 34,000  Level FlightAware
08:59PM 60.7850 -155.6030 263° West 505 581 34,000  Level FlightAware
09:00PM 60.7770 -155.7480 264° West 505 581 34,000  Level FlightAware
09:01PM 60.7640 -155.9500 263° West 505 581 34,000  Level FlightAware
09:01PM 60.7590 -156.0470 264° West 505 581 34,000  Level FlightAware
09:02PM 60.7470 -156.2400 263° West 505 581 34,000  Level FlightAware
09:03PM 60.7290 -156.5350 263° West 505 581 34,000  Level FlightAware
09:04PM 60.7210 -156.6800 264° West 505 581 34,000 840 Level FlightAware
09:04PM 60.6667 -157.1667 264° West 490 564 35,000 600 Climbing Anchorage Center
09:05PM 60.6500 -157.4333 263° West 490 564 35,000  Level Anchorage Center
09:06PM 60.6333 -157.7167 263° West 480 552 35,000  Level Anchorage Center
09:07PM 60.6000 -158.0000 257° West 490 564 35,000  Level Anchorage Center
09:08PM 60.5833 -158.2667 263° West 490 564 35,000  Level Anchorage Center
09:09PM 60.5500 -158.5500 257° West 490 564 35,000  Level Anchorage Center
09:10PM 60.5333 -158.8167 263° West 490 564 35,000  Level Anchorage Center
09:11PM 60.5000 -159.1000 257° West 490 564 35,000  Level Anchorage Center
09:14PM 60.4535 -159.6041 260° West  Level FlightAware Approximate
09:14PM 60.4500 -159.7000 260° West 490 564 35,000  Level Anchorage Center
09:15PM 60.4000 -160.1667 259° West 480 552 35,000  Level Anchorage Center
09:16PM 60.4009 -160.2023 259° West  Level FlightAware Approximate
09:16PM 60.3833 -160.4333 263° West 490 564 35,000  Level Anchorage Center
09:17PM 60.3500 -160.7000 256° West 490 564 35,000  Level Anchorage Center
09:18PM 60.3167 -160.9667 256° West 480 552 35,000  Level Anchorage Center
09:19PM 60.2833 -161.2333 256° West 480 552 35,000  Level Anchorage Center
09:20PM 60.2667 -161.5000 263° West 480 552 35,000  Level Anchorage Center
09:21PM 60.2333 -161.8167 258° West 490 564 35,000  Level Anchorage Center
09:22PM 60.2000 -162.0833 256° West 480 552 35,000  Level Anchorage Center
09:23PM 60.1667 -162.3500 256° West 480 552 35,000  Level Anchorage Center
09:24PM 60.1333 -162.6167 256° West 480 552 35,000  Level Anchorage Center
09:25PM 60.1000 -162.8667 255° West 480 552 35,000  Level Anchorage Center
09:26PM 60.0667 -163.1333 256° West 480 552 35,000  Level Anchorage Center
09:27PM 60.0333 -163.4000 256° West 480 552 35,000  Level Anchorage Center
09:28PM 60.0000 -163.6500 255° West 470 541 35,000  Level Anchorage Center
09:29PM 59.9667 -163.9167 256° West 480 552 35,000  Level Anchorage Center
09:30PM 59.9333 -164.1667 255° West 480 552 35,000  Level Anchorage Center
09:31PM 59.9000 -164.4167 255° West 470 541 35,000  Level Anchorage Center
09:32PM 59.8667 -164.6833 256° West 470 541 35,000  Level Anchorage Center
09:33PM 59.8333 -164.9333 255° West 470 541 35,000  Level Anchorage Center
09:34PM 59.8000 -165.1833 255° West 480 552 35,000  Level Anchorage Center
09:35PM 59.7667 -165.4667 257° West 480 552 35,000  Level Anchorage Center
09:36PM 59.7167 -165.7167 248° West 470 541 35,000  Level Anchorage Center
09:37PM 59.6833 -165.9667 255° West 480 552 35,000  Level Anchorage Center
09:38PM 59.6500 -166.2167 255° West 470 541 35,000  Level Anchorage Center
09:39PM 59.6167 -166.4833 256° West 480 552 35,000  Level Anchorage Center
09:40PM 59.5667 -166.7333 249° West 470 541 35,000  Level Anchorage Center
09:42PM 59.5167 -167.0333 252° West 470 541 35,000  Level Anchorage Center
09:43PM 59.4833 -167.2833 255° West 480 552 35,000  Level Anchorage Center
09:44PM 59.4333 -167.5500 250° West 490 564 35,000  Level Anchorage Center
09:45PM 59.4000 -167.7833 254° West 470 541 35,000  Level Anchorage Center
09:46PM 59.3500 -168.0333 249° West 470 541 35,000  Level Anchorage Center
09:47PM 59.3167 -168.2500 253° West 470 541 35,000  Level Anchorage Center
09:48PM 59.2833 -168.5000 255° West 470 541 35,000  Level Anchorage Center
09:49PM 59.2333 -168.7500 249° West 470 541 35,000  Level Anchorage Center
09:50PM 59.1833 -169.0000 249° West 480 552 35,000  Level Anchorage Center
09:51PM 59.1500 -169.2500 256° West 470 541 35,000  Level Anchorage Center
09:52PM 59.1000 -169.4833 247° West 470 541 35,000  Level Anchorage Center
09:53PM 59.0667 -169.7333 256° West 480 552 35,000  Level Anchorage Center
09:54PM 59.0167 -169.9833 249° West 470 541 35,000  Level Anchorage Center
09:55PM 58.9667 -170.2167 248° West 480 552 35,000  Level Anchorage Center
09:56PM 58.9167 -170.4667 249° West 470 541 35,000  Level Anchorage Center
09:57PM 58.8833 -170.7000 255° West 480 552 35,000  Level Anchorage Center
09:58PM 58.8333 -170.9500 249° West 480 552 35,000  Level Anchorage Center
09:59PM 58.7833 -171.1833 248° West 470 541 35,000  Level Anchorage Center
10:00PM 58.7333 -171.4167 248° West 470 541 35,000  Level Anchorage Center
10:01PM 58.6833 -171.6500 248° West 470 541 35,000  Level Anchorage Center
10:02PM 58.6333 -171.8833 248° West 460 529 35,000  Level Anchorage Center
10:03PM 58.5833 -172.1167 248° West 460 529 35,000  Level Anchorage Center
10:04PM 58.5500 -172.3500 255° West 450 518 35,000  Level Anchorage Center
10:05PM 58.5000 -172.5667 246° West 450 518 35,000  Level Anchorage Center
10:06PM 58.4500 -172.7833 246° West 450 518 35,000  Level Anchorage Center
10:07PM 58.4000 -173.0167 248° West 440 506 35,000  Level Anchorage Center
10:08PM 58.3500 -173.2333 246° West 440 506 35,000  Level Anchorage Center
10:09PM 58.3000 -173.4333 245° Southwest 440 506 35,000  Level Anchorage Center
10:10PM 58.2500 -173.6500 246° West 440 506 35,000  Level Anchorage Center
10:11PM 58.2167 -173.8833 255° West 440 506 35,000  Level Anchorage Center
10:12PM 58.1667 -174.0833 245° Southwest 440 506 35,000  Level Anchorage Center
10:13PM 58.1167 -174.3000 246° West 440 506 35,000  Level Anchorage Center
10:14PM 58.0667 -174.5167 247° West 440 506 35,000  Level Anchorage Center
10:15PM 58.0167 -174.7333 247° West 430 495 35,000  Level Anchorage Center
10:16PM 57.9667 -174.9333 245° Southwest 440 506 35,000  Level Anchorage Center
10:17PM 57.9167 -175.1500 247° West 440 506 35,000  Level Anchorage Center
10:18PM 57.8667 -175.3667 247° West 440 506 35,000  Level Anchorage Center
10:19PM 57.8167 -175.5667 245° Southwest 430 495 35,000  Level Anchorage Center
10:20PM 57.7667 -175.7833 247° West 440 506 35,000  Level Anchorage Center
10:21PM 57.7167 -176.0000 247° West 440 506 35,000  Level Anchorage Center
10:22PM 57.6667 -176.2000 245° Southwest 440 506 35,000  Level Anchorage Center
10:23PM 57.6333 -176.3667 250° West 440 506 35,000  Level Anchorage Center
10:25PM 57.5357 -176.7900 247° West  Level FlightAware Approximate
10:25PM 57.5333 -176.8000 245° Southwest 453 521 35,000  Level Anchorage Center
10:29PM 57.3833 -177.3833 244° Southwest 451 519 35,000  Level Anchorage Center
10:32PM 57.1463 -178.2929 244° Southwest 453 521 35,000  Level FlightAware Transoceanic
10:33PM 57.0896 -178.5036 244° Southwest 453 521 35,000  Level FlightAware Transoceanic
10:34PM 57.0325 -178.7136 243° Southwest 453 521 35,000  Level FlightAware Transoceanic
10:35PM 56.9875 -178.8722 243° Southwest 451 519 35,000  Level FlightAware Transoceanic
10:36PM 56.9295 -179.0823 243° Southwest 451 519 35,000  Level FlightAware Transoceanic
10:37PM 56.8712 -179.2917 243° Southwest 451 519 35,000  Level FlightAware Transoceanic
10:38PM 56.8125 -179.5005 243° Southwest 451 519 35,000  Level FlightAware Transoceanic
10:39PM 56.7534 -179.7086 243° Southwest 451 519 35,000  Level FlightAware Transoceanic
10:40PM 56.6941 -179.9161 242° Southwest 451 519 35,000  Level FlightAware Transoceanic
10:41PM 56.6344 179.8771 242° Southwest 451 519 35,000  Level FlightAware Transoceanic
10:42PM 56.5743 179.6709 242° Southwest 451 519 35,000  Level FlightAware Transoceanic
10:43PM 56.5139 179.4655 242° Southwest 451 519 35,000  Level FlightAware Transoceanic
10:44PM 56.4532 179.2606 242° Southwest 451 519 35,000  Level FlightAware Transoceanic
10:45PM 56.3921 179.0564 242° Southwest 451 519 35,000  Level FlightAware Transoceanic
10:46PM 56.3307 178.8529 241° Southwest 451 519 35,000  Level FlightAware Transoceanic
10:47PM 56.2690 178.6500 241° Southwest 451 519 35,000  Level FlightAware Transoceanic
10:48PM 56.2069 178.4478 241° Southwest 451 519 35,000  Level FlightAware Transoceanic
10:49PM 56.1445 178.2462 241° Southwest 451 519 35,000  Level FlightAware Transoceanic
10:50PM 56.0818 178.0453 241° Southwest 451 519 35,000  Level FlightAware Transoceanic
10:50PM 56.0667 177.9833 241° Southwest 458 527 35,000  Level Anchorage Center
10:51PM 56.0187 177.8450 241° Southwest 451 519 35,000  Level FlightAware Transoceanic
10:52PM 55.9553 177.6454 240° Southwest 451 519 35,000  Level FlightAware Transoceanic
10:53PM 55.8916 177.4465 240° Southwest 451 519 35,000  Level FlightAware Transoceanic
10:54PM 55.8276 177.2482 240° Southwest 451 519 35,000  Level FlightAware Transoceanic
10:54PM 55.8333 177.2500 240° Southwest 457 526 35,000  Level Anchorage Center
10:55PM 55.7633 177.0505 240° Southwest 451 519 35,000  Level FlightAware Transoceanic
10:56PM 55.7505 177.0004 240° Southwest 458 527 35,000  Level FlightAware Transoceanic
10:56PM 55.7167 176.9333 239° Southwest 450 518 35,000  Level Anchorage Center
10:57PM 55.6863 176.8057 240° Southwest 458 527 35,000  Level FlightAware Transoceanic
10:57PM 55.6667 176.7667 242° Southwest 460 529 35,000  Level Anchorage Center
10:58PM 55.6218 176.6117 239° Southwest 458 527 35,000  Level FlightAware Transoceanic
10:58PM 55.6000 176.5333 243° Southwest 460 529 35,000  Level Anchorage Center
10:59PM 55.5571 176.4183 239° Southwest 458 527 35,000  Level FlightAware Transoceanic
10:59PM 55.5333 176.3833 232° Southwest 460 529 35,000  Level Anchorage Center
11:00PM 55.4571 176.1199 239° Southwest 457 526 35,000  Level FlightAware Transoceanic
11:00PM 55.4667 176.1667 242° Southwest 450 518 35,000  Level Anchorage Center
11:01PM 55.3934 175.9337 239° Southwest 457 526 35,000  Level FlightAware Transoceanic
11:01PM 55.4167 176.0000 242° Southwest 460 529 35,000  Level Anchorage Center
11:02PM 55.3333 175.7833 236° Southwest 460 529 35,000  Level Anchorage Center
11:03PM 55.2667 175.5667 242° Southwest 460 529 35,000  Level Anchorage Center
11:04PM 55.2000 175.4000 235° Southwest 460 529 35,000  Level Anchorage Center
11:05PM 55.1333 175.2000 240° Southwest 460 529 35,000  Level Anchorage Center
11:06PM 55.0833 175.0333 242° Southwest 460 529 35,000  Level Anchorage Center
11:07PM 55.0000 174.8333 234° Southwest 460 529 35,000  Level Anchorage Center
11:08PM 54.9333 174.6667 235° Southwest 460 529 35,000  Level Anchorage Center
11:09PM 54.8667 174.4500 242° Southwest 460 529 35,000  Level Anchorage Center
11:10PM 54.8000 174.2833 235° Southwest 460 529 35,000  Level Anchorage Center
11:11PM 54.7333 174.0833 240° Southwest 470 541 35,000  Level Anchorage Center
11:12PM 54.6500 173.8833 234° Southwest 460 529 35,000  Level Anchorage Center
11:13PM 54.6000 173.7167 243° Southwest 470 541 35,000  Level Anchorage Center
11:14PM 54.5167 173.5167 234° Southwest 470 541 35,000  Level Anchorage Center
11:15PM 54.4500 173.3500 236° Southwest 470 541 35,000  Level Anchorage Center
11:16PM 54.3833 173.1500 240° Southwest 470 541 35,000  Level Anchorage Center
11:17PM 54.3167 172.9833 236° Southwest 470 541 35,000  Level Anchorage Center
11:18PM 54.2333 172.7833 235° Southwest 470 541 35,000  Level Anchorage Center
11:19PM 54.1500 172.5667 237° Southwest 490 564 35,000  Level Anchorage Center
11:20PM 54.0833 172.4167 233° Southwest 460 529 35,000  Level Anchorage Center
11:21PM 54.0000 172.2167 235° Southwest 470 541 35,000  Level Anchorage Center
11:22PM 53.9333 172.0500 236° Southwest 490 564 35,000  Level Anchorage Center
11:23PM 53.8500 171.8500 235° Southwest 480 552 35,000  Level Anchorage Center
11:24PM 53.7833 171.6833 236° Southwest 490 564 35,000  Level Anchorage Center
11:25PM 53.7000 171.4833 235° Southwest 480 552 35,000  Level Anchorage Center
11:26PM 53.6167 171.2833 235° Southwest 490 564 35,000  Level Anchorage Center
11:27PM 53.5500 171.1333 233° Southwest 470 541 35,000  Level Anchorage Center
11:28PM 53.4667 170.9333 235° Southwest 490 564 35,000  Level Anchorage Center
11:29PM 53.4000 170.7667 236° Southwest 480 552 35,000  Level Anchorage Center
11:30PM 53.3000 170.5667 230° Southwest 490 564 35,000  Level Anchorage Center
11:31PM 53.2333 170.4167 233° Southwest 500 575 35,000  Level Anchorage Center
11:32PM 53.1500 170.2167 235° Southwest 490 564 35,000  Level Anchorage Center
11:33PM 53.0500 170.0167 230° Southwest 500 575 35,000  Level Anchorage Center
11:34PM 52.9833 169.8500 236° Southwest 500 575 35,000  Level Anchorage Center
11:35PM 52.9167 169.6333 243° Southwest 510 587 35,000  Level Anchorage Center
11:36PM 52.8500 169.4667 237° Southwest 500 575 35,000  Level Anchorage Center
11:37PM 52.7833 169.2333 245° Southwest 510 587 35,000  Level Anchorage Center
11:38PM 52.7167 169.0667 237° Southwest 530 610 35,000  Level Anchorage Center
11:39PM 52.6500 168.8333 245° Southwest 500 575 35,000  Level Anchorage Center
11:40PM 52.5833 168.6667 237° Southwest 520 598 35,000  Level Anchorage Center
11:41PM 52.5000 168.4500 238° Southwest 520 598 35,000  Level Anchorage Center
11:42PM 52.4333 168.2333 243° Southwest 520 598 35,000  Level Anchorage Center
11:43PM 52.3667 168.0500 239° Southwest 520 598 35,000  Level Anchorage Center
11:44PM 52.2833 167.8333 238° Southwest 510 587 35,000  Level Anchorage Center
11:47PM 52.1533 167.4774 239° Southwest  Level FlightAware Approximate
11:48PM 52.0333 167.1167 239° Southwest 507 583 35,000  Level Anchorage Center
11:54PM 51.6736 166.2060 239° Southwest  Level FlightAware Approximate
11:55PM 51.5215 165.7744 238° Southwest 507 583 35,000  Level FlightAware Transoceanic
11:56PM 51.4471 165.5851 238° Southwest 507 583 35,000  Level FlightAware Transoceanic
11:56PM 51.4333 165.5500 238° Southwest 506 582 35,000  Level Anchorage Center
11:57PM 51.3725 165.3964 238° Southwest 507 583 35,000  Level FlightAware Transoceanic
11:58PM 51.2975 165.2084 237° Southwest 507 583 35,000  Level FlightAware Transoceanic
11:59PM 51.2222 165.0210 237° Southwest 507 583 35,000  Level FlightAware Transoceanic
12:00AM 51.1467 164.8341 237° Southwest 507 583 35,000  Level FlightAware Transoceanic
12:01AM 51.0708 164.6479 237° Southwest 507 583 35,000  Level FlightAware Transoceanic
12:02AM 50.9833 164.4346 237° Southwest 506 582 35,000  Level FlightAware Transoceanic
12:02AM 50.9500 164.3833 237° Southwest 502 578 35,000  Level Anchorage Center
12:03AM 50.9072 164.2508 237° Southwest 506 582 35,000  Level FlightAware Transoceanic
12:04AM 50.8309 164.0676 236° Southwest 506 582 35,000  Level FlightAware Transoceanic
12:05AM 50.7543 163.8850 236° Southwest 506 582 35,000  Level FlightAware Transoceanic
12:06AM 50.6774 163.7030 236° Southwest 506 582 35,000  Level FlightAware Transoceanic
12:07AM 50.6002 163.5216 236° Southwest 506 582 35,000  Level FlightAware Transoceanic
12:08AM 50.4971 163.3029 236° Southwest 502 578 35,000  Level FlightAware Transoceanic
12:09AM 50.4207 163.1248 236° Southwest 502 578 35,000  Level FlightAware Transoceanic
12:10AM 50.3440 162.9473 236° Southwest 502 578 35,000  Level FlightAware Transoceanic
12:11AM 50.2670 162.7704 236° Southwest 502 578 35,000  Level FlightAware Transoceanic
12:12AM 50.1898 162.5941 236° Southwest 502 578 35,000  Level FlightAware Transoceanic
12:12AM 50.1333 162.4667 235° Southwest 502 578 35,000  Level Anchorage Center
12:13AM 50.1123 162.4183 235° Southwest 502 578 35,000  Level FlightAware Transoceanic
12:14AM 50.0345 162.2431 235° Southwest 502 578 35,000  Level FlightAware Transoceanic
12:14AM 50.0167 162.1833 235° Southwest 504 580 35,000  Level Anchorage Center
12:15AM 49.9564 162.0685 235° Southwest 502 578 35,000  Level FlightAware Transoceanic
12:16AM 49.8781 161.8944 235° Southwest 502 578 35,000  Level FlightAware Transoceanic
12:17AM 49.7996 161.7209 235° Southwest 502 578 35,000  Level FlightAware Transoceanic
12:18AM 49.7207 161.5480 235° Southwest 502 578 35,000  Level FlightAware Transoceanic
12:19AM 49.6540 161.4027 235° Southwest 502 578 35,000  Level FlightAware Transoceanic
12:20AM 49.5525 161.1721 234° Southwest 504 580 35,000  Level FlightAware Transoceanic
12:21AM 49.4743 161.0055 234° Southwest 504 580 35,000  Level FlightAware Transoceanic
12:21AM 49.4833 161.0333 234° Southwest 497 572 35,000  Level Anchorage Center
12:22AM 49.3958 160.8394 234° Southwest 504 580 35,000  Level FlightAware Transoceanic
12:23AM 49.3171 160.6738 234° Southwest 504 580 35,000  Level FlightAware Transoceanic
12:24AM 49.2382 160.5087 234° Southwest 504 580 35,000  Level FlightAware Transoceanic
12:25AM 49.1590 160.3442 234° Southwest 504 580 35,000  Level FlightAware Transoceanic
12:26AM 49.0796 160.1801 233° Southwest 504 580 35,000  Level FlightAware Transoceanic
12:27AM 49.0000 160.0167 233° Southwest 497 572 35,000  Level FlightAware Transoceanic
12:28AM 48.9177 159.8489 233° Southwest 497 572 35,000  Level FlightAware Transoceanic
12:29AM 48.8352 159.6816 233° Southwest 497 572 35,000  Level FlightAware Transoceanic
12:30AM 48.7524 159.5149 233° Southwest 497 572 35,000  Level FlightAware Transoceanic
12:31AM 48.6694 159.3487 233° Southwest 497 572 35,000  Level FlightAware Transoceanic
12:32AM 48.5862 159.1831 233° Southwest 497 572 35,000  Level FlightAware Transoceanic
12:33AM 48.5027 159.0181 233° Southwest 497 572 35,000  Level FlightAware Transoceanic
12:34AM 48.4189 158.8535 232° Southwest 497 572 35,000  Level FlightAware Transoceanic
12:35AM 48.3350 158.6896 232° Southwest 497 572 35,000  Level FlightAware Transoceanic
12:36AM 48.2508 158.5261 232° Southwest 497 572 35,000  Level FlightAware Transoceanic
12:37AM 48.1664 158.3632 232° Southwest 497 572 35,000  Level FlightAware Transoceanic
12:38AM 48.0817 158.2009 232° Southwest 497 572 35,000  Level FlightAware Transoceanic
12:39AM 47.9968 158.0390 232° Southwest 497 572 35,000  Level FlightAware Transoceanic
12:40AM 47.9118 157.8777 232° Southwest 497 572 35,000  Level FlightAware Transoceanic
12:41AM 47.8264 157.7170 232° Southwest 497 572 35,000  Level FlightAware Transoceanic
12:42AM 47.7409 157.5567 231° Southwest 497 572 35,000  Level FlightAware Transoceanic
12:43AM 47.6551 157.3970 231° Southwest 497 572 35,000  Level FlightAware Transoceanic
12:44AM 47.5691 157.2378 231° Southwest 497 572 35,000  Level FlightAware Transoceanic
12:45AM 47.4829 157.0791 231° Southwest 497 572 35,000  Level FlightAware Transoceanic
12:46AM 47.3965 156.9210 231° Southwest 497 572 35,000  Level FlightAware Transoceanic
12:47AM 47.3098 156.7634 231° Southwest 497 572 35,000  Level FlightAware Transoceanic
12:48AM 47.2229 156.6063 231° Southwest 497 572 35,000  Level FlightAware Transoceanic
12:49AM 47.1359 156.4497 231° Southwest 497 572 35,000  Level FlightAware Transoceanic
12:50AM 47.0486 156.2936 231° Southwest 497 572 35,000  Level FlightAware Transoceanic
12:51AM 46.9611 156.1380 230° Southwest 497 572 35,000  Level FlightAware Transoceanic
12:52AM 46.8733 155.9830 230° Southwest 497 572 35,000  Level FlightAware Transoceanic
12:53AM 46.7854 155.8284 230° Southwest 497 572 35,000  Level FlightAware Transoceanic
12:54AM 46.6973 155.6743 230° Southwest 497 572 35,000  Level FlightAware Transoceanic
12:55AM 46.6090 155.5208 230° Southwest 497 572 35,000  Level FlightAware Transoceanic
12:56AM 46.5204 155.3678 230° Southwest 497 572 35,000  Level FlightAware Transoceanic
12:57AM 46.4317 155.2152 230° Southwest 497 572 35,000  Level FlightAware Transoceanic
12:58AM 46.3427 155.0631 230° Southwest 497 572 35,000  Level FlightAware Transoceanic
12:59AM 46.2536 154.9116 230° Southwest 497 572 35,000  Level FlightAware Transoceanic
01:00AM 46.1642 154.7605 229° Southwest 497 572 35,000  Level FlightAware Transoceanic
01:01AM 46.0747 154.6099 229° Southwest 497 572 35,000  Level FlightAware Transoceanic
01:02AM 45.9850 154.4599 229° Southwest 497 572 35,000  Level FlightAware Transoceanic
01:03AM 45.8950 154.3103 229° Southwest 497 572 35,000  Level FlightAware Transoceanic
01:04AM 45.8049 154.1611 229° Southwest 497 572 35,000  Level FlightAware Transoceanic
01:05AM 45.7146 154.0125 229° Southwest 497 572 35,000  Level FlightAware Transoceanic
01:06AM 45.6240 153.8643 229° Southwest 497 572 35,000  Level FlightAware Transoceanic
01:07AM 45.5293 153.7340 224° Southwest  Level FlightAware Approximate
01:08AM 45.4344 153.6042 224° Southwest  Level FlightAware Approximate
01:09AM 45.4453 153.6001 229° Southwest  Level FlightAware Approximate
01:10AM 45.3587 153.4592 229° Southwest  Level FlightAware Approximate
01:11AM 45.2719 153.3188 229° Southwest  Level FlightAware Approximate
01:12AM 45.1849 153.1787 229° Southwest  Level FlightAware Approximate
01:13AM 45.0978 153.0391 229° Southwest  Level FlightAware Approximate
01:14AM 45.0104 152.8999 228° Southwest  Level FlightAware Approximate
01:15AM 44.9219 152.7625 228° Southwest  Level FlightAware Approximate
01:16AM 44.8331 152.6257 228° Southwest  Level FlightAware Approximate
01:17AM 44.7440 152.4893 227° Southwest  Level FlightAware Approximate
01:18AM 44.6549 152.3534 227° Southwest  Level FlightAware Approximate
01:19AM 44.5659 152.2183 227° Southwest  Level FlightAware Approximate
01:20AM 44.4768 152.0837 227° Southwest  Level FlightAware Approximate
01:21AM 44.3875 151.9495 227° Southwest  Level FlightAware Approximate
01:22AM 44.2980 151.8157 227° Southwest  Level FlightAware Approximate
01:23AM 44.2084 151.6824 227° Southwest  Level FlightAware Approximate
01:24AM 44.1186 151.5494 227° Southwest  Level FlightAware Approximate
01:25AM 44.0287 151.4168 227° Southwest  Level FlightAware Approximate
01:26AM 43.9386 151.2847 227° Southwest  Level FlightAware Approximate
01:27AM 43.8484 151.1529 227° Southwest  Level FlightAware Approximate
01:28AM 43.7580 151.0215 226° Southwest  Level FlightAware Approximate
01:29AM 43.6675 150.8905 226° Southwest  Level FlightAware Approximate
01:30AM 43.5768 150.7600 226° Southwest  Level FlightAware Approximate
01:31AM 43.4860 150.6298 226° Southwest  Level FlightAware Approximate
01:32AM 43.3950 150.5000 226° Southwest  Level FlightAware Approximate
01:33AM 43.3041 150.3703 226° Southwest  Level FlightAware Approximate
01:34AM 43.2131 150.2409 226° Southwest  Level FlightAware Approximate
01:35AM 43.1220 150.1120 226° Southwest  Level FlightAware Approximate
01:36AM 43.0307 149.9834 226° Southwest  Level FlightAware Approximate
01:37AM 42.9392 149.8552 226° Southwest  Level FlightAware Approximate
01:38AM 42.8476 149.7274 226° Southwest  Level FlightAware Approximate
01:38AM 42.7310 149.4910 226° Southwest 480 552 36,000  Level FlightAware
01:39AM 42.7559 149.5999 226° Southwest  Level FlightAware Approximate
01:39AM 42.6470 149.3750 225° Southwest 480 552 36,000  Level FlightAware
01:39AM 42.5920 149.3020 224° Southwest 481 554 36,000  Level FlightAware
01:40AM 42.5320 149.2180 226° Southwest 483 556 36,000  Level FlightAware
01:41AM 42.4610 149.1220 225° Southwest 483 556 36,000  Level FlightAware
01:41AM 42.4040 149.0450 225° Southwest 483 556 36,000  Level FlightAware
01:42AM 42.3270 148.9400 225° Southwest 484 557 36,000  Level FlightAware
01:43AM 42.2630 148.8540 225° Southwest 480 552 36,000  Level FlightAware
01:43AM 42.1990 148.7680 225° Southwest 480 552 36,000  Level FlightAware
01:44AM 42.1350 148.6800 226° Southwest 482 555 36,000  Level FlightAware
01:45AM 42.0710 148.5950 225° Southwest 483 556 36,000  Level FlightAware
01:45AM 42.0080 148.5110 225° Southwest 483 556 36,000  Level FlightAware
01:46AM 41.9430 148.4260 224° Southwest 481 554 36,000  Level FlightAware
01:47AM 41.8570 148.3110 225° Southwest 481 554 36,000  Level FlightAware
01:48AM 41.7820 148.2110 225° Southwest 483 556 36,000  Level FlightAware
01:48AM 41.7190 148.1290 224° Southwest 482 555 36,000  Level FlightAware
01:49AM 41.6450 148.0330 224° Southwest 486 559 36,000  Level FlightAware
01:50AM 41.5800 147.9520 223° Southwest 485 558 36,000  Level FlightAware
01:51AM 41.5080 147.8580 224° Southwest 479 551 36,000  Level FlightAware
01:51AM 41.4420 147.7730 224° Southwest 478 550 36,000  Level FlightAware
01:52AM 41.3580 147.6660 224° Southwest 476 548 36,000  Level FlightAware
01:53AM 41.2830 147.5730 223° Southwest 475 547 36,000  Level FlightAware
01:54AM 41.2020 147.4700 224° Southwest 471 542 36,000  Level FlightAware
01:55AM 41.1160 147.3610 224° Southwest 467 537 36,000  Level FlightAware
01:55AM 41.0590 147.2900 223° Southwest 471 542 36,000  Level FlightAware
01:56AM 40.9870 147.1980 224° Southwest 469 540 36,000  Level FlightAware
01:57AM 40.9240 147.1220 222° Southwest 469 540 36,000  Level FlightAware
01:58AM 40.8400 147.0160 224° Southwest 469 540 36,000  Level FlightAware
01:58AM 40.7660 146.9240 223° Southwest 469 540 36,000  Level FlightAware
01:59AM 40.7140 146.8610 223° Southwest 469 540 36,000  Level FlightAware
01:59AM 40.6780 146.8160 223° Southwest 464 534 36,000  Level FlightAware
02:01AM 40.5820 146.6980 223° Southwest 466 536 36,000  Level FlightAware
02:01AM 40.4930 146.5880 223° Southwest 467 537 36,000  Level FlightAware
02:02AM 40.4150 146.4940 223° Southwest 468 539 36,000  Level FlightAware
02:03AM 40.3420 146.4040 223° Southwest 469 540 36,000  Level FlightAware
02:04AM 40.2610 146.3070 222° Southwest 467 537 36,000  Level FlightAware
02:05AM 40.1490 146.2170 212° Southwest 476 548 36,000  Level FlightAware
02:05AM 40.0900 146.1550 219° Southwest 471 542 36,000  Level FlightAware
02:06AM 40.0250 146.0810 221° Southwest 478 550 36,000  Level FlightAware
02:06AM 39.9740 146.0230 221° Southwest 478 550 36,000  Level FlightAware
02:07AM 39.9230 145.9660 221° Southwest 478 550 36,000  Level FlightAware
02:08AM 39.8550 145.8880 221° Southwest 478 550 36,000  Level FlightAware
02:08AM 39.8040 145.8310 221° Southwest 478 550 36,000  Level FlightAware
02:09AM 39.7360 145.7540 221° Southwest 478 550 36,000  Level FlightAware
02:10AM 39.6850 145.6960 221° Southwest 478 550 36,000  Level FlightAware
02:11AM 39.6170 145.6190 221° Southwest 478 550 36,000  Level FlightAware
02:11AM 39.5660 145.5610 221° Southwest 478 550 36,000  Level FlightAware
02:12AM 39.5150 145.5040 221° Southwest 478 550 36,000  Level FlightAware
02:13AM 39.4470 145.4270 221° Southwest 478 550 36,000  Level FlightAware
02:13AM 39.3960 145.3700 221° Southwest 478 550 36,000  Level FlightAware
02:14AM 39.3450 145.3120 221° Southwest 478 550 36,000  Level FlightAware
02:15AM 39.1620 145.0600 227° Southwest 479 551 36,000  Level FlightAware
02:15AM 39.0870 144.9750 221° Southwest 479 551 36,000  Level FlightAware
02:16AM 39.0300 144.9080 222° Southwest 480 552 36,000  Level FlightAware
02:17AM 38.9450 144.8110 222° Southwest 36,000  Level FlightAware
02:17AM 38.8770 144.7320 222° Southwest 485 558 36,000  Level FlightAware
02:18AM 38.7740 144.6140 222° Southwest 497 572 36,000  Level FlightAware
02:19AM 38.6970 144.5280 221° Southwest 499 574 36,000  Level FlightAware
02:20AM 38.6190 144.4370 222° Southwest 497 572 36,000  Level FlightAware
02:21AM 38.5410 144.3500 221° Southwest 503 579 36,000  Level FlightAware
02:21AM 38.4700 144.2690 222° Southwest 513 590 36,000  Level FlightAware
02:22AM 38.3990 144.1890 221° Southwest 515 593 36,000  Level FlightAware
02:23AM 38.3300 144.1120 221° Southwest 519 597 36,000  Level FlightAware
02:23AM 38.2430 144.0150 221° Southwest 516 594 36,000  Level FlightAware
02:24AM 38.1620 143.9230 222° Southwest 521 600 36,000  Level FlightAware
02:25AM 38.0950 143.8490 221° Southwest 530 610 36,000  Level FlightAware
02:25AM 38.0140 143.7590 221° Southwest 524 603 36,000  Level FlightAware
02:26AM 37.9410 143.6780 221° Southwest 523 602 36,000  Level FlightAware
02:27AM 37.8570 143.5860 221° Southwest 529 609 36,000  Level FlightAware
02:28AM 37.7890 143.5100 221° Southwest 523 602 36,000  Level FlightAware
02:28AM 37.7040 143.4140 222° Southwest 523 602 36,000  Level FlightAware
02:29AM 37.6370 143.3400 221° Southwest 523 602 36,000  Level FlightAware
02:30AM 37.5560 143.2500 221° Southwest 525 604 36,000  Level FlightAware
02:30AM 37.4720 143.1550 222° Southwest 525 604 36,000 -420 Level FlightAware
02:31AM 37.4070 143.0840 221° Southwest 534 615 35,500 -1,560 Descending FlightAware
02:32AM 37.3270 143.0100 216° Southwest 542 624 34,100 -1,140 Descending FlightAware
02:32AM 37.2330 142.9580 204° Southwest 535 616 34,000 -120 Descending FlightAware
02:33AM 37.1530 142.9160 203° Southwest 541 623 34,000  Level FlightAware
02:34AM 37.0500 142.8650 202° Southwest 535 616 34,000  Level FlightAware
02:34AM 36.9460 142.8120 202° Southwest 537 618 34,000  Level FlightAware
02:35AM 36.8520 142.7660 201° Southwest 538 619 34,000  Level FlightAware
02:36AM 36.7570 142.7180 202° Southwest 539 620 34,000  Level FlightAware
02:36AM 36.6520 142.6650 202° Southwest 538 619 34,000  Level FlightAware
02:37AM 36.5270 142.5930 205° Southwest 533 613 34,000  Level FlightAware
02:38AM 36.4510 142.5400 209° Southwest 538 619 34,000 -240 Level FlightAware
02:39AM 36.3530 142.4730 209° Southwest 520 598 33,700 -600 Descending FlightAware
02:39AM 36.2700 142.4160 209° Southwest 513 590 33,200 -1,080 Descending FlightAware
02:40AM 36.1650 142.3530 206° Southwest 488 562 32,100 -1,380 Descending FlightAware
02:41AM 36.0800 142.3330 191° South 472 543 31,200 -1,440 Descending FlightAware
02:42AM 35.9800 142.3140 189° South 451 519 30,100 -1,380 Descending FlightAware
02:42AM 35.9190 142.3130 181° South 449 517 29,500 -1,200 Descending FlightAware
02:43AM 35.8390 142.3140 179° South 422 486 28,700 -1,380 Descending FlightAware
02:43AM 35.7550 142.3170 178° South 418 481 27,600 -1,680 Descending FlightAware
02:44AM 35.6700 142.3040 187° South 394 453 26,300 -1,800 Descending FlightAware
02:45AM 35.5790 142.2460 207° Southwest 381 438 24,600 -1,860 Descending FlightAware
02:46AM 35.5240 142.1990 215° Southwest 370 426 23,200 -2,160 Descending FlightAware
02:46AM 35.5140 142.1650 250° West 346 398 22,600 -2,280 Descending FlightAware
02:47AM 35.5200 142.1190 279° West 325 374 21,700 -1,860 Descending FlightAware
02:47AM 35.5450 142.0680 301° West 317 365 20,800 -1,560 Descending FlightAware
02:48AM 35.5770 142.0010 300° West 317 365 19,700 -1,680 Descending FlightAware
02:48AM 35.5920 141.9400 287° West 318 366 18,600 -1,740 Descending FlightAware
02:49AM 35.5880 141.8350 267° West 318 366 17,000 -1,560 Descending FlightAware
02:50AM 35.5830 141.7660 265° West 317 365 16,000 -720 Descending FlightAware
02:51AM 35.5790 141.6890 266° West 288 331 16,000  Level FlightAware
02:52AM 35.5750 141.6020 267° West 285 328 16,000  Level FlightAware
02:52AM 35.6050 141.5630 313° West 277 319 16,000  Level FlightAware
02:53AM 35.6290 141.5170 303° West 276 318 16,000  Level FlightAware
02:53AM 35.6460 141.4960 315° West 279 321 16,000  Level FlightAware
02:54AM 35.6870 141.4580 323° Northwest 281 323 16,000  Level FlightAware
02:54AM 35.7230 141.4260 324° Northwest 277 319 16,000  Level FlightAware
02:55AM 35.7710 141.3820 323° Northwest 279 321 16,000  Level FlightAware
02:56AM 35.8160 141.3400 323° Northwest 281 323 16,000  Level FlightAware
02:56AM 35.8520 141.3050 322° Northwest 278 320 16,000  Level FlightAware
02:57AM 35.8490 141.2340 267° West 298 343 16,000  Level FlightAware
02:57AM 35.8340 141.2180 221° Southwest 305 351 16,000 -1,020 Level FlightAware
02:58AM 35.7780 141.1790 209° Southwest 300 345 15,000 -1,200 Descending FlightAware
02:59AM 35.7400 141.1480 214° Southwest 285 328 14,400 -1,140 Descending FlightAware
02:59AM 35.7330 141.1360 234° Southwest 275 316 14,200 -1,440 Descending FlightAware
02:59AM 35.7240 141.1130 244° Southwest 267 307 13,800 -1,440 Descending FlightAware
02:59AM 35.7230 141.1010 264° West 260 299 13,600 -1,500 Descending FlightAware
03:00AM 35.7340 141.0300 281° West 260 299 12,400 -1,380 Descending FlightAware
03:01AM 35.7550 140.9780 296° West 247 284 11,600 -1,080 Descending FlightAware
03:01AM 35.7860 140.9460 320° Northwest 248 285 11,100 -840 Descending FlightAware
03:02AM 35.8250 140.9110 324° Northwest 247 284 10,600 -840 Descending FlightAware
03:02AM 35.8380 140.8900 307° West 253 291 10,300 -1,020 Descending FlightAware
03:03AM 35.8400 140.8760 280° West 258 297 10,100 -1,080 Descending FlightAware
03:03AM 35.8240 140.8360 244° Southwest 281 323 9,600 -1,140 Descending FlightAware
03:03AM 35.8050 140.8250 205° Southwest 293 337 9,300 -600 Descending FlightAware
03:04AM 35.7690 140.8190 188° South 299 344 9,200 -360 Descending FlightAware
03:04AM 35.7290 140.8100 190° South 286 329 9,000 -720 Descending FlightAware
03:05AM 35.6900 140.7950 197° South 287 330 8,500 -1,140 Descending FlightAware
03:05AM 35.6600 140.7830 198° South 270 311 8,000 -1,380 Descending FlightAware
03:05AM 35.6420 140.7750 200° South 270 311 7,600 -1,500 Descending FlightAware
03:06AM 35.6110 140.7620 199° South 277 319 7,000 -1,560 Descending FlightAware
03:06AM 35.5820 140.7490 200° South 273 314 6,200 -1,860 Descending FlightAware
03:07AM 35.5470 140.7340 199° South 259 298 5,200 -1,680 Descending FlightAware
03:07AM 35.5140 140.7200 199° South 237 273 4,700 -1,200 Descending FlightAware
03:08AM 35.4890 140.7040 208° Southwest 232 267 4,200 -540 Descending FlightAware
03:08AM 35.4680 140.6740 229° Southwest 215 247 4,200  Level FlightAware
03:08AM 35.4640 140.6640 244° Southwest 206 237 4,200  Level FlightAware
03:09AM 35.4620 140.6520 258° West 205 236 4,200  Level FlightAware
03:09AM 35.4700 140.6260 291° West 186 214 4,200  Level FlightAware
03:09AM 35.4810 140.6030 300° West 174 200 4,200  Level FlightAware
03:10AM 35.4930 140.5770 300° West 174 200 4,200  Level FlightAware
03:10AM 35.5100 140.5580 318° Northwest 169 194 4,200  Level FlightAware
03:11AM 35.5330 140.5430 332° Northwest 170 196 4,200  Level FlightAware
03:11AM 35.5510 140.5290 328° Northwest 168 193 4,200 -120 Level FlightAware
03:12AM 35.5720 140.5150 332° Northwest 172 198 4,100 -600 Descending FlightAware
03:12AM 35.5930 140.4990 328° Northwest 172 198 3,600 -780 Descending FlightAware
03:13AM 35.6060 140.4900 331° Northwest 169 194 3,400 -900 Descending FlightAware
03:13AM 35.6330 140.4710 330° Northwest 174 200 2,800 -1,080 Descending FlightAware
03:14AM 35.6520 140.4560 327° Northwest 177 204 2,400 -1,020 Descending FlightAware
03:14AM 35.6720 140.4430 332° Northwest 163 188 1,900 -900 Descending FlightAware
03:14AM 35.6890 140.4300 328° Northwest 157 181 1,600 -780 Descending FlightAware
03:15AM 35.7060 140.4180 330° Northwest 155 178 1,200 -900 Descending FlightAware
03:15AM 35.7220 140.4060 329° Northwest 153 176 800 -780 Descending FlightAware
03:16AM 35.7400 140.3940 332° Northwest 155 178 500 -360 Descending FlightAware
03:16AM 35.7540 140.3830 327° Northwest 155 178 500  Level FlightAware
03:19AM 35.7500 140.3833 253° West  Level FlightAware Approximate